Item Display Status Humidity-temperature Sensor

Elevation Above Sea Level: 3 m

 

Deployed Sensor

  • Serial Number: 61290135
  • NDBC Property Number: 37966
  • Start Date: 3/26/2016 (12:39:28 Z)
  • End Date: 8/8/2017 (22:40:00 Z)
Relative Humidity [%]     6 entries per hour
Showing data from 8/8/2017 (22:40:00 Z) to 8/7/2017 (00:00:01 Z)
Previous Next [ Day | 3-Days | 7-Days ]
First Last
Prev [ Day | 3-Days | 7-Days ] Next
First Last

Start Time:     :
End Time:     :     
Time (in GMT) :00 :50 :40 :30 :20 :10
Previous Next [ Day | 3-Days | 7-Days ]
First Last
Prev [ Day | 3-Days | 7-Days ] Next
First Last


123 => good data
MM => data is determined as missing
-- => data not received/configured
Back to Top Back to Top
8/8/2017 23:00 to 22:10 -- -- 75.44 75.66 74.92 74.25
8/8/2017 22:00 to 21:10 74.63 75.07 75.53 76.87 76.03 75.63
8/8/2017 21:00 to 20:10 74.69 74.06 72.46 72.57 74.92 72.94
8/8/2017 20:00 to 19:10 74.40 76.20 76.45 76.20 76.27 76.24
8/8/2017 19:00 to 18:10 76.69 77.57 77.42 77.02 77.46 78.37
8/8/2017 18:00 to 17:10 78.66 78.77 79.31 80.17 80.36 80.51
8/8/2017 17:00 to 16:10 79.42 80.78 79.40 78.79 76.26 77.02
8/8/2017 16:00 to 15:10 79.80 80.30 81.58 80.61 80.09 81.48
8/8/2017 15:00 to 14:10 80.00 77.23 76.96 78.26 79.84 77.31
8/8/2017 14:00 to 13:10 77.13 76.03 76.35 76.01 76.12 76.07
8/8/2017 13:00 to 12:10 76.64 75.76 75.63 75.95 75.24 76.56
8/8/2017 12:00 to 11:10 76.54 76.39 76.24 76.58 77.76 75.32
8/8/2017 11:00 to 10:10 74.69 75.36 74.90 74.84 75.28 75.99
8/8/2017 10:00 to 9:10 74.92 75.11 74.27 75.80 75.61 75.40
8/8/2017 09:00 to 8:10 77.13 76.01 76.87 76.89 75.76 75.49
8/8/2017 08:00 to 7:10 75.55 73.20 75.68 76.18 76.81 74.69
8/8/2017 07:00 to 6:10 75.93 75.99 77.57 76.14 74.65 74.92
8/8/2017 06:00 to 5:10 76.45 76.71 77.88 78.26 76.92 74.94
8/8/2017 05:00 to 4:10 74.46 74.14 71.71 73.13 76.81 75.91
8/8/2017 04:00 to 3:10 72.90 72.23 72.36 73.28 73.53 75.49
8/8/2017 03:00 to 2:10 74.29 72.95 73.76 76.33 74.67 73.70
8/8/2017 02:00 to 1:10 73.57 73.87 75.82 76.89 76.47 76.01
8/8/2017 01:00 to 0:10 76.47 76.05 77.11 77.21 77.52 78.62
8/8/2017 00:00 to 23:10 78.89 75.45 76.08 75.78 75.61 75.63
8/7/2017 23:00 to 22:10 76.39 75.24 75.30 75.74 75.45 74.90
8/7/2017 22:00 to 21:10 74.65 75.23 74.86 74.25 73.55 72.97
8/7/2017 21:00 to 20:10 73.32 73.93 74.29 73.16 72.52 71.20
8/7/2017 20:00 to 19:10 70.68 71.28 72.99 74.90 76.26 76.43
8/7/2017 19:00 to 18:10 76.89 77.17 77.74 77.90 78.32 78.35
8/7/2017 18:00 to 17:10 78.70 79.31 80.43 81.08 79.27 77.61
8/7/2017 17:00 to 16:10 79.14 80.13 80.11 79.69 80.13 80.22
8/7/2017 16:00 to 15:10 80.49 80.47 80.76 80.49 80.68 81.16
8/7/2017 15:00 to 14:10 81.58 81.79 81.73 81.60 81.08 80.57
8/7/2017 14:00 to 13:10 80.99 81.73 82.80 83.70 83.77 82.34
8/7/2017 13:00 to 12:10 80.84 80.76 83.26 84.69 84.42 83.22
8/7/2017 12:00 to 11:10 80.24 78.09 77.36 76.79 77.57 77.90
8/7/2017 11:00 to 10:10 78.41 78.43 78.81 79.67 78.58 78.49
8/7/2017 10:00 to 9:10 77.97 77.94 78.01 78.18 78.56 79.23
8/7/2017 09:00 to 8:10 80.13 80.87 81.27 80.84 81.58 81.87
8/7/2017 08:00 to 7:10 82.04 83.37 84.06 84.92 85.13 85.07
8/7/2017 07:00 to 6:10 84.46 82.99 79.14 77.71 75.66 74.88
8/7/2017 06:00 to 5:10 76.01 76.05 82.17 81.90 80.78 77.11
8/7/2017 05:00 to 4:10 77.95 78.85 79.50 79.98 78.72 78.49
8/7/2017 04:00 to 3:10 79.29 78.24 76.14 74.21 75.80 76.69
8/7/2017 03:00 to 2:10 77.42 78.07 76.66 79.02 79.44 78.26
8/7/2017 02:00 to 1:10 75.09 77.92 79.42 82.63 85.45 88.58
8/7/2017 01:00 to 0:10 88.37 78.03 77.29 78.11 78.41 76.31

 

 

 

Air Temperature [°C]     6 entries per hour
Showing data from 8/8/2017 (22:40:00 Z) to 8/7/2017 (00:00:01 Z)
Previous Next [ Day | 3-Days | 7-Days ]
First Last
Prev [ Day | 3-Days | 7-Days ] Next
First Last

Start Time:     :
End Time:     :     
Time (in GMT) :00 :50 :40 :30 :20 :10
Previous Next [ Day | 3-Days | 7-Days ]
First Last
Prev [ Day | 3-Days | 7-Days ] Next
First Last


123 => good data
MM => data is determined as missing
-- => data not received/configured
Back to Top Back to Top
8/8/2017 23:00 to 22:10 -- -- 28.77 28.98 29.07 28.93
8/8/2017 22:00 to 21:10 28.96 28.91 28.66 28.64 28.56 28.65
8/8/2017 21:00 to 20:10 28.79 28.75 28.69 28.90 28.74 28.88
8/8/2017 20:00 to 19:10 28.74 28.18 28.19 28.04 27.91 27.86
8/8/2017 19:00 to 18:10 27.77 27.86 27.82 27.69 27.67 27.59
8/8/2017 18:00 to 17:10 27.52 27.65 27.23 27.53 27.14 27.37
8/8/2017 17:00 to 16:10 27.26 27.40 27.55 27.72 28.04 27.74
8/8/2017 16:00 to 15:10 27.53 27.40 27.29 27.29 27.09 27.23
8/8/2017 15:00 to 14:10 27.38 27.78 27.99 27.76 27.19 27.47
8/8/2017 14:00 to 13:10 28.35 28.85 28.80 28.80 28.82 28.82
8/8/2017 13:00 to 12:10 28.99 28.74 28.83 28.79 28.75 28.63
8/8/2017 12:00 to 11:10 28.92 29.04 29.01 28.96 29.01 29.32
8/8/2017 11:00 to 10:10 29.27 29.23 29.17 29.39 29.20 29.17
8/8/2017 10:00 to 9:10 29.30 29.19 29.19 29.39 29.37 29.32
8/8/2017 09:00 to 8:10 29.27 29.26 29.22 29.20 29.25 29.21
8/8/2017 08:00 to 7:10 29.17 29.33 29.28 29.27 29.12 29.25
8/8/2017 07:00 to 6:10 29.14 29.20 29.28 29.19 29.14 29.12
8/8/2017 06:00 to 5:10 28.96 28.95 29.10 29.08 29.11 29.04
8/8/2017 05:00 to 4:10 29.06 29.09 29.34 29.26 28.66 29.11
8/8/2017 04:00 to 3:10 29.29 29.17 29.27 29.27 29.07 29.34
8/8/2017 03:00 to 2:10 29.25 29.05 28.93 29.30 29.14 29.24
8/8/2017 02:00 to 1:10 29.22 28.98 29.05 28.91 28.91 28.76
8/8/2017 01:00 to 0:10 28.74 28.86 28.75 28.93 28.83 28.90
8/8/2017 00:00 to 23:10 28.85 29.10 28.72 28.71 28.79 28.74
8/7/2017 23:00 to 22:10 28.69 29.04 28.79 28.90 28.73 29.06
8/7/2017 22:00 to 21:10 29.01 29.16 28.85 28.94 29.08 29.02
8/7/2017 21:00 to 20:10 28.86 28.87 29.07 29.16 29.06 29.35
8/7/2017 20:00 to 19:10 29.44 29.24 28.96 28.41 27.92 27.92
8/7/2017 19:00 to 18:10 27.68 27.61 27.71 27.58 27.67 27.58
8/7/2017 18:00 to 17:10 27.66 27.55 27.54 27.55 27.73 27.88
8/7/2017 17:00 to 16:10 27.50 27.61 27.50 27.51 27.43 27.32
8/7/2017 16:00 to 15:10 27.36 27.23 27.26 27.25 27.17 27.06
8/7/2017 15:00 to 14:10 27.09 27.11 27.13 27.13 27.16 27.13
8/7/2017 14:00 to 13:10 27.04 26.83 26.63 26.62 26.73 26.86
8/7/2017 13:00 to 12:10 26.75 26.67 26.42 26.45 26.66 26.42
8/7/2017 12:00 to 11:10 27.69 27.70 27.59 27.80 27.57 27.52
8/7/2017 11:00 to 10:10 27.55 27.49 27.55 27.51 27.69 27.57
8/7/2017 10:00 to 9:10 27.51 27.43 27.34 27.26 27.17 27.14
8/7/2017 09:00 to 8:10 26.95 26.96 26.84 26.90 26.70 26.81
8/7/2017 08:00 to 7:10 26.50 26.46 26.31 26.26 26.37 26.35
8/7/2017 07:00 to 6:10 26.40 26.67 26.79 26.84 27.35 27.35
8/7/2017 06:00 to 5:10 27.57 27.19 26.51 27.25 27.95 28.11
8/7/2017 05:00 to 4:10 28.11 27.99 27.94 27.81 28.04 28.01
8/7/2017 04:00 to 3:10 27.85 27.95 28.58 28.99 29.01 28.83
8/7/2017 03:00 to 2:10 28.50 28.54 28.38 28.14 28.22 28.31
8/7/2017 02:00 to 1:10 28.68 28.33 27.72 27.43 26.87 25.94
8/7/2017 01:00 to 0:10 25.45 28.62 28.65 28.14 28.39 28.64